Terminal Aerodrome Forecast
Issued by NWS Pittsburgh, PA

Current Version | Previous Version | Graphics & Text | Print | Product List | Glossary On
Versions: 1 2 3 4 5 6 7 8 9 10 11 12 13 14 15 16 17 18 19 20 21 22 23 24 25 26 27 28
536
FTUS41 KPBZ 161921 AAA
TAFPIT
TAF AMD
KPIT 161921Z 1619/1724 28005KT 2SM -SN SCT012 OVC035
      TEMPO 1619/1621 BKN012
     FM162200 29007KT 5SM -SN SCT015 OVC040
     FM170300 28010KT P6SM BKN025
     FM171500 26004KT P6SM SCT025 BKN035=

USA.gov is the U.S. government's official web portal to all federal, state and local government web resources and services.